Time;durP1;ratioP1;P1;durP2;ratioP2;P2;SDS_P1;SDS_P2;PMS_P1;PMS_P2;Temp;Humidity;BMP_temperature;BMP_pressure;BME280_temperature;BME280_humidity;BME280_pressure;Samples;Min_cycle;Max_cycle;Signal;HPM_P1;HPM_P2
2023/07/24 00:01:11;;;;;;;18.55;5.68;;;13.40;99.90;;;;;;5051306;28;20025;-73
2023/07/24 00:03:37;;;;;;;10.27;5.22;;;13.40;99.90;;;;;;5051115;28;20446;-73
2023/07/24 00:06:03;;;;;;;12.18;5.65;;;13.40;99.90;;;;;;5051469;28;20191;-73
2023/07/24 00:08:28;;;;;;;10.63;5.63;;;13.40;99.90;;;;;;5051028;28;20079;-75
2023/07/24 00:10:54;;;;;;;11.93;4.68;;;13.40;99.90;;;;;;5050891;28;20053;-73
2023/07/24 00:13:20;;;;;;;11.43;5.30;;;13.40;99.90;;;;;;5051077;28;20474;-72
2023/07/24 00:15:45;;;;;;;17.80;5.85;;;13.40;99.90;;;;;;5050472;28;20135;-73
2023/07/24 00:18:11;;;;;;;12.20;5.30;;;13.30;99.90;;;;;;5050955;28;20123;-73
2023/07/24 00:20:37;;;;;;;8.63;4.88;;;13.30;99.90;;;;;;5050313;28;20025;-73
2023/07/24 00:23:02;;;;;;;15.95;5.70;;;13.30;99.90;;;;;;5050478;28;20025;-73
2023/07/24 00:25:28;;;;;;;12.45;5.78;;;13.30;99.90;;;;;;5050633;28;20037;-73
2023/07/24 00:27:54;;;;;;;10.88;5.50;;;13.30;99.90;;;;;;5050263;28;20102;-72
2023/07/24 00:30:20;;;;;;;8.30;5.03;;;13.20;99.90;;;;;;5050751;28;20024;-72
2023/07/24 00:32:45;;;;;;;9.65;5.07;;;13.20;99.90;;;;;;5050524;28;20036;-73
2023/07/24 00:35:11;;;;;;;10.23;5.00;;;13.10;99.90;;;;;;5050565;28;20025;-74
2023/07/24 00:37:37;;;;;;;9.93;4.78;;;13.10;99.90;;;;;;5050029;28;20029;-73
2023/07/24 00:40:03;;;;;;;9.93;5.28;;;13.10;99.90;;;;;;5050844;28;20246;-73
2023/07/24 00:42:29;;;;;;;15.02;5.57;;;13.10;99.90;;;;;;5050738;28;20170;-73
2023/07/24 00:44:55;;;;;;;9.85;5.18;;;13.00;99.90;;;;;;5050028;28;20116;-73
2023/07/24 00:47:22;;;;;;;7.80;5.32;;;12.90;99.90;;;;;;5049123;28;20446;-73
2023/07/24 00:49:49;;;;;;;11.73;5.78;;;12.80;99.90;;;;;;5049908;28;20047;-73
2023/07/24 00:52:15;;;;;;;9.05;4.95;;;12.80;99.90;;;;;;5050408;28;20025;-73
2023/07/24 00:54:43;;;;;;;16.45;5.80;;;12.70;99.90;;;;;;5049896;28;20141;-73
2023/07/24 00:57:09;;;;;;;15.00;5.32;;;12.70;99.90;;;;;;5050306;28;20411;-73
2023/07/24 00:59:35;;;;;;;12.32;6.10;;;12.70;99.90;;;;;;5050395;28;20037;-74
2023/07/24 01:02:01;;;;;;;11.55;6.18;;;12.60;99.90;;;;;;5051247;28;20025;-73
2023/07/24 01:04:27;;;;;;;8.80;5.25;;;12.60;99.90;;;;;;5050164;28;20450;-73
2023/07/24 01:06:52;;;;;;;12.10;5.32;;;12.60;99.90;;;;;;5050039;28;20029;-73
2023/07/24 01:09:18;;;;;;;13.05;6.70;;;12.50;99.90;;;;;;5050464;28;20425;-73
2023/07/24 01:11:50;;;;;;;12.90;6.88;;;12.50;99.90;;;;;;5049471;28;20450;-73
2023/07/24 01:14:29;;;;;;;15.18;5.97;;;12.50;99.90;;;;;;5050303;28;20021;-73
2023/07/24 01:16:58;;;;;;;14.25;6.63;;;12.40;99.90;;;;;;5049594;28;20063;-73
2023/07/24 01:19:36;;;;;;;11.20;5.93;;;12.40;99.90;;;;;;5050289;28;20032;-73
2023/07/24 01:22:12;;;;;;;15.05;5.93;;;12.40;99.90;;;;;;5050525;28;20021;-73
2023/07/24 01:25:02;;;;;;;14.93;6.03;;;12.50;99.90;;;;;;5049872;28;20118;-73
2023/07/24 01:27:28;;;;;;;11.73;5.43;;;12.50;99.90;;;;;;5049997;28;20049;-73
2023/07/24 01:29:53;;;;;;;15.20;5.78;;;12.50;99.90;;;;;;5049580;28;20112;-73
2023/07/24 01:32:19;;;;;;;12.23;6.80;;;12.60;99.90;;;;;;5050257;28;20350;-73
2023/07/24 01:34:46;;;;;;;17.40;5.95;;;12.60;99.90;;;;;;5049300;28;20063;-73
2023/07/24 01:37:12;;;;;;;9.25;5.10;;;12.60;99.90;;;;;;5054047;28;20328;-73
2023/07/24 01:39:43;;;;;;;10.48;5.25;;;12.60;99.90;;;;;;5053601;28;20024;-73
2023/07/24 01:42:09;;;;;;;12.70;5.00;;;12.60;99.90;;;;;;5054077;28;20025;-73
2023/07/24 01:44:35;;;;;;;10.52;4.75;;;12.60;99.90;;;;;;5053430;28;20044;-75
2023/07/24 01:47:01;;;;;;;9.93;5.05;;;12.50;99.90;;;;;;5053541;28;20124;-73
2023/07/24 01:49:26;;;;;;;15.13;5.63;;;12.50;99.90;;;;;;5053716;28;20025;-73
2023/07/24 01:51:52;;;;;;;11.52;5.35;;;12.50;99.90;;;;;;5052091;28;20028;-73
2023/07/24 01:54:18;;;;;;;11.10;5.30;;;12.60;99.90;;;;;;5052606;28;20377;-73
2023/07/24 01:56:44;;;;;;;10.35;5.00;;;12.60;99.90;;;;;;5052898;28;20036;-73
2023/07/24 01:59:09;;;;;;;10.73;5.13;;;12.60;99.90;;;;;;5053604;28;20068;-73
2023/07/24 02:01:35;;;;;;;14.43;5.30;;;12.60;99.90;;;;;;5052458;28;20036;-75
2023/07/24 02:04:02;;;;;;;13.30;5.03;;;12.50;99.90;;;;;;5053152;28;20068;-73
2023/07/24 02:06:27;;;;;;;9.27;4.65;;;12.60;99.90;;;;;;5053412;28;20074;-73
2023/07/24 02:08:53;;;;;;;13.10;4.43;;;12.60;99.90;;;;;;5052899;28;20421;-73
2023/07/24 02:11:19;;;;;;;9.02;4.15;;;12.60;99.90;;;;;;5051985;28;20021;-73
2023/07/24 02:13:45;;;;;;;9.10;4.00;;;12.60;99.90;;;;;;5051687;28;20056;-73
2023/07/24 02:16:12;;;;;;;8.80;3.95;;;12.70;99.90;;;;;;5053183;28;20117;-73
2023/07/24 02:18:42;;;;;;;7.63;4.45;;;12.70;99.90;;;;;;5053151;28;20037;-76
2023/07/24 02:21:07;;;;;;;9.27;4.13;;;12.70;99.90;;;;;;5053350;28;20028;-73
2023/07/24 02:23:34;;;;;;;12.93;4.47;;;12.60;99.90;;;;;;5053278;28;20025;-73
2023/07/24 02:26:00;;;;;;;7.47;3.80;;;12.60;99.90;;;;;;5052293;28;20102;-73
2023/07/24 02:28:26;;;;;;;7.30;3.97;;;12.60;99.90;;;;;;5052427;28;20440;-73
2023/07/24 02:30:55;;;;;;;9.68;4.25;;;12.70;99.90;;;;;;5051203;28;20048;-73
2023/07/24 02:33:21;;;;;;;14.20;5.10;;;12.60;99.90;;;;;;5051808;28;20032;-72
2023/07/24 02:35:47;;;;;;;6.00;4.28;;;12.70;99.90;;;;;;5051100;28;20109;-72
2023/07/24 02:38:13;;;;;;;8.93;4.30;;;12.70;99.90;;;;;;5051623;28;20495;-72
2023/07/24 02:40:41;;;;;;;7.57;3.83;;;12.60;99.90;;;;;;5051622;28;20021;-75
2023/07/24 02:43:06;;;;;;;10.13;4.90;;;12.60;99.90;;;;;;5051731;28;20029;-73
2023/07/24 02:45:36;;;;;;;11.02;4.57;;;12.60;99.90;;;;;;5051266;28;20025;-73
2023/07/24 02:48:02;;;;;;;7.20;3.78;;;12.60;99.90;;;;;;5050784;28;20090;-73
2023/07/24 02:50:28;;;;;;;13.25;4.30;;;12.60;99.90;;;;;;5051291;28;20425;-73
2023/07/24 02:52:54;;;;;;;11.85;4.22;;;12.60;99.90;;;;;;5050874;28;20025;-73
2023/07/24 02:55:20;;;;;;;7.80;4.68;;;12.50;99.90;;;;;;5051414;28;20052;-73
2023/07/24 02:57:45;;;;;;;10.73;4.78;;;12.40;99.90;;;;;;5050725;28;20143;-73
2023/07/24 03:00:12;;;;;;;7.82;4.05;;;12.40;99.90;;;;;;5051667;28;20124;-72
2023/07/24 03:02:38;;;;;;;12.13;5.00;;;12.30;99.90;;;;;;5051410;28;20033;-73
2023/07/24 03:05:04;;;;;;;9.13;4.57;;;12.30;99.90;;;;;;5050698;28;20024;-72
2023/07/24 03:07:29;;;;;;;8.80;4.20;;;12.20;99.90;;;;;;5051158;28;20383;-73
2023/07/24 03:09:55;;;;;;;8.23;4.35;;;12.20;99.90;;;;;;5050175;28;20084;-73
2023/07/24 03:12:21;;;;;;;10.85;5.32;;;12.30;99.90;;;;;;5050981;28;20489;-72
2023/07/24 03:14:47;;;;;;;11.00;4.43;;;12.20;99.90;;;;;;5050470;28;20025;-73
2023/07/24 03:17:13;;;;;;;8.77;4.40;;;12.20;99.90;;;;;;5050950;28;20029;-73
2023/07/24 03:19:41;;;;;;;9.52;5.07;;;12.20;99.90;;;;;;5050791;28;20146;-73
2023/07/24 03:22:07;;;;;;;11.38;5.10;;;12.20;99.90;;;;;;5050650;28;20035;-72
2023/07/24 03:24:33;;;;;;;9.88;4.93;;;12.10;99.90;;;;;;5049692;28;20028;-72
2023/07/24 03:27:00;;;;;;;10.07;5.18;;;12.10;99.90;;;;;;5050162;28;20043;-73
2023/07/24 03:29:26;;;;;;;10.70;5.47;;;12.10;99.90;;;;;;5003742;28;1371516;-72
2023/07/24 03:31:52;;;;;;;9.65;5.03;;;12.10;99.90;;;;;;5051079;28;20492;-73
2023/07/24 03:34:18;;;;;;;9.15;5.30;;;12.10;99.90;;;;;;5051934;28;20059;-72
2023/07/24 03:36:43;;;;;;;9.38;5.38;;;12.00;99.90;;;;;;5051400;28;20025;-75
2023/07/24 03:39:10;;;;;;;8.73;4.88;;;12.00;99.90;;;;;;5051371;28;20075;-73
2023/07/24 03:41:36;;;;;;;10.85;5.75;;;11.90;99.90;;;;;;5051204;28;20029;-73
2023/07/24 03:44:02;;;;;;;13.57;6.07;;;11.90;99.90;;;;;;5051204;28;20635;-73
2023/07/24 03:46:28;;;;;;;9.02;5.38;;;11.90;99.90;;;;;;5051572;28;20117;-73
2023/07/24 03:48:54;;;;;;;15.18;5.90;;;11.90;99.90;;;;;;5050998;28;20029;-72
2023/07/24 03:51:19;;;;;;;9.95;5.80;;;11.90;99.90;;;;;;5051547;28;20047;-73
2023/07/24 03:53:46;;;;;;;10.27;6.10;;;11.90;99.90;;;;;;5050683;28;20083;-75
2023/07/24 03:56:12;;;;;;;11.23;5.95;;;11.80;99.90;;;;;;5051020;28;20021;-73
2023/07/24 03:58:39;;;;;;;6.40;4.85;;;11.80;99.90;;;;;;5050282;28;20029;-73
2023/07/24 04:01:05;;;;;;;9.88;5.88;;;11.80;99.90;;;;;;5050983;28;20100;-73
2023/07/24 04:03:31;;;;;;;11.93;5.05;;;11.80;99.90;;;;;;5050942;28;20035;-73
2023/07/24 04:05:57;;;;;;;8.07;4.18;;;11.80;99.90;;;;;;5050865;28;20017;-73
2023/07/24 04:08:22;;;;;;;7.75;4.55;;;11.90;99.90;;;;;;5051250;28;20029;-73
2023/07/24 04:10:48;;;;;;;8.52;4.80;;;11.90;99.90;;;;;;5050314;28;20521;-73
2023/07/24 04:13:14;;;;;;;8.73;5.40;;;12.00;99.90;;;;;;5049862;28;20036;-73
2023/07/24 04:15:40;;;;;;;11.77;5.35;;;12.00;99.90;;;;;;5051157;28;20335;-72
2023/07/24 04:18:05;;;;;;;11.55;4.80;;;12.00;99.90;;;;;;5050322;28;20052;-73
2023/07/24 04:20:31;;;;;;;12.18;5.47;;;12.00;99.90;;;;;;5050815;28;20025;-73
2023/07/24 04:22:57;;;;;;;9.75;4.60;;;12.00;99.90;;;;;;5050413;28;20032;-73
2023/07/24 04:25:23;;;;;;;12.90;5.18;;;12.00;99.90;;;;;;5051081;28;20489;-73
2023/07/24 04:27:49;;;;;;;7.22;4.60;;;12.00;99.90;;;;;;5050351;28;20045;-73
2023/07/24 04:30:15;;;;;;;6.88;4.22;;;11.90;99.90;;;;;;5050730;28;20087;-72
2023/07/24 04:32:40;;;;;;;12.80;6.18;;;12.00;99.90;;;;;;5050797;28;20374;-73
2023/07/24 04:35:07;;;;;;;10.20;4.57;;;12.00;99.90;;;;;;5050287;28;20119;-73
2023/07/24 04:37:32;;;;;;;7.78;4.88;;;11.90;99.90;;;;;;5050468;28;20033;-73
2023/07/24 04:39:58;;;;;;;6.88;4.60;;;11.90;99.90;;;;;;5050089;28;20031;-73
2023/07/24 04:42:24;;;;;;;7.53;4.88;;;11.90;99.90;;;;;;5050867;28;20025;-73
2023/07/24 04:44:51;;;;;;;10.90;5.35;;;12.00;99.90;;;;;;5050269;28;20033;-73
2023/07/24 04:47:17;;;;;;;7.38;4.65;;;12.00;99.90;;;;;;5050741;28;20025;-73
2023/07/24 04:49:43;;;;;;;5.72;4.18;;;12.00;99.90;;;;;;5049368;28;20021;-73
2023/07/24 04:52:08;;;;;;;6.80;4.82;;;12.00;99.90;;;;;;5049977;28;20091;-73
2023/07/24 04:54:34;;;;;;;7.68;4.50;;;12.00;99.90;;;;;;5048846;28;20021;-73
2023/07/24 04:57:00;;;;;;;13.70;5.65;;;12.10;99.90;;;;;;5049415;28;20106;-73
2023/07/24 04:59:25;;;;;;;6.60;5.38;;;12.10;99.90;;;;;;5049961;28;20569;-73
2023/07/24 05:01:51;;;;;;;9.85;4.60;;;12.10;99.90;;;;;;5050172;28;20055;-73
2023/07/24 05:04:17;;;;;;;8.00;5.18;;;12.10;99.90;;;;;;5050281;28;20117;-73
2023/07/24 05:06:42;;;;;;;6.95;5.28;;;12.20;99.90;;;;;;5050275;28;20071;-73
2023/07/24 05:09:08;;;;;;;6.93;5.38;;;12.20;99.90;;;;;;5049093;28;20665;-73
2023/07/24 05:11:34;;;;;;;10.77;5.35;;;12.10;99.90;;;;;;5048634;28;20029;-73
2023/07/24 05:14:00;;;;;;;10.13;5.47;;;12.20;99.90;;;;;;5049283;28;20031;-73
2023/07/24 05:16:25;;;;;;;8.07;5.20;;;12.20;99.90;;;;;;5050223;28;20370;-73
2023/07/24 05:18:51;;;;;;;9.05;5.68;;;12.20;99.90;;;;;;5049178;28;20711;-75
2023/07/24 05:21:17;;;;;;;12.25;5.90;;;12.20;99.90;;;;;;5050499;28;20077;-73
2023/07/24 05:23:42;;;;;;;7.00;5.75;;;12.20;99.90;;;;;;5049880;28;20024;-73
2023/07/24 05:26:08;;;;;;;11.13;6.07;;;12.20;99.90;;;;;;5049708;28;20092;-73
2023/07/24 05:28:34;;;;;;;9.50;5.95;;;12.30;99.90;;;;;;5049695;28;20505;-73
2023/07/24 05:31:04;;;;;;;11.40;5.68;;;12.30;99.90;;;;;;5049785;28;20040;-73
2023/07/24 05:33:30;;;;;;;6.63;5.18;;;12.30;99.90;;;;;;5048309;28;20465;-73
2023/07/24 05:36:03;;;;;;;12.63;6.38;;;12.40;99.90;;;;;;5048306;28;20033;-74
2023/07/24 05:38:29;;;;;;;9.85;6.25;;;12.40;99.90;;;;;;5049842;28;20033;-73
2023/07/24 05:40:55;;;;;;;12.77;6.05;;;12.50;99.90;;;;;;5048854;28;20490;-73
2023/07/24 05:43:21;;;;;;;7.63;5.20;;;12.50;99.90;;;;;;5049673;28;20431;-73
2023/07/24 05:45:47;;;;;;;9.68;6.03;;;12.50;99.90;;;;;;5050212;28;20113;-73
2023/07/24 05:48:12;;;;;;;13.05;5.72;;;12.50;99.90;;;;;;5049158;28;20116;-73
2023/07/24 05:50:38;;;;;;;8.82;5.80;;;12.40;99.90;;;;;;5049864;28;20442;-73
2023/07/24 05:53:04;;;;;;;12.20;6.15;;;12.50;99.90;;;;;;5049145;28;20068;-73
2023/07/24 05:55:29;;;;;;;10.05;6.07;;;12.50;99.90;;;;;;5050366;28;20075;-73
2023/07/24 05:57:55;;;;;;;12.40;6.57;;;12.60;99.90;;;;;;5049467;28;20037;-74
2023/07/24 06:00:21;;;;;;;8.85;6.07;;;12.80;99.90;;;;;;5050517;28;20056;-73
2023/07/24 06:02:47;;;;;;;9.27;6.63;;;12.90;99.90;;;;;;5049914;28;20025;-73
2023/07/24 06:05:12;;;;;;;10.55;5.97;;;13.20;99.90;;;;;;5049380;28;20144;-73
2023/07/24 06:07:38;;;;;;;11.38;5.32;;;13.30;99.90;;;;;;5049892;28;20152;-73
2023/07/24 06:10:04;;;;;;;5.22;4.43;;;13.40;99.90;;;;;;5049269;28;20433;-73
2023/07/24 06:12:30;;;;;;;6.55;4.55;;;13.50;99.90;;;;;;5049599;28;20025;-73
2023/07/24 06:14:55;;;;;;;4.40;3.83;;;13.50;99.90;;;;;;5049080;28;20029;-74
2023/07/24 06:17:21;;;;;;;8.95;5.13;;;13.60;99.90;;;;;;5049579;28;20033;-73
2023/07/24 06:19:47;;;;;;;7.82;4.93;;;13.70;99.90;;;;;;5049724;28;20025;-73
2023/07/24 06:22:12;;;;;;;10.25;4.15;;;13.90;99.90;;;;;;5051733;28;20206;-73
2023/07/24 06:24:38;;;;;;;7.15;4.72;;;13.80;99.90;;;;;;5053089;28;20463;-72
2023/07/24 06:27:06;;;;;;;8.98;5.18;;;13.90;99.90;;;;;;5052124;28;20170;-73
2023/07/24 06:29:32;;;;;;;10.38;4.30;;;14.00;99.90;;;;;;5053142;28;20131;-73
2023/07/24 06:31:58;;;;;;;4.95;4.32;;;14.00;99.90;;;;;;5051149;28;20025;-74
2023/07/24 06:34:23;;;;;;;8.70;4.60;;;14.10;99.90;;;;;;5053026;28;20067;-73
2023/07/24 06:36:49;;;;;;;8.45;4.43;;;14.10;99.90;;;;;;5053376;28;20339;-73
2023/07/24 06:39:15;;;;;;;7.05;3.92;;;14.20;99.90;;;;;;5052552;28;20059;-73
2023/07/24 06:41:41;;;;;;;8.55;3.78;;;14.20;99.90;;;;;;5052675;28;20033;-73
2023/07/24 06:44:07;;;;;;;7.70;4.05;;;14.20;99.90;;;;;;5052353;28;20387;-73
2023/07/24 06:46:33;;;;;;;5.80;3.65;;;14.30;99.90;;;;;;5052903;28;20382;-73
2023/07/24 06:48:58;;;;;;;9.82;4.00;;;14.30;99.90;;;;;;5052253;28;20397;-73
2023/07/24 06:51:24;;;;;;;8.73;3.95;;;14.30;99.90;;;;;;5052814;28;20100;-72
2023/07/24 06:53:49;;;;;;;6.03;3.75;;;14.30;99.90;;;;;;5051251;28;20028;-73
2023/07/24 06:56:15;;;;;;;9.63;4.13;;;14.40;99.90;;;;;;5052488;28;20629;-73
2023/07/24 06:58:41;;;;;;;6.00;3.75;;;14.50;99.90;;;;;;5052220;28;20033;-74
2023/07/24 07:01:07;;;;;;;10.88;3.72;;;14.70;99.90;;;;;;5052501;28;20025;-73
2023/07/24 07:03:36;;;;;;;9.90;3.65;;;14.80;99.90;;;;;;5052451;28;20450;-73
2023/07/24 07:06:02;;;;;;;7.50;3.28;;;14.80;99.90;;;;;;5051478;28;20025;-73
2023/07/24 07:08:30;;;;;;;7.43;3.15;;;14.80;99.90;;;;;;5052458;28;20048;-73
2023/07/24 07:11:00;;;;;;;9.82;3.72;;;14.80;99.90;;;;;;5052066;28;20017;-76
2023/07/24 07:13:26;;;;;;;7.28;3.33;;;15.00;99.90;;;;;;5051881;28;20460;-73
2023/07/24 07:15:52;;;;;;;10.95;4.00;;;15.10;99.90;;;;;;5051801;28;20493;-73
2023/07/24 07:18:18;;;;;;;9.18;3.70;;;15.20;99.90;;;;;;5051470;28;20042;-73
2023/07/24 07:20:47;;;;;;;4.63;3.40;;;15.30;99.90;;;;;;5051946;28;20179;-73
2023/07/24 07:23:13;;;;;;;7.28;3.72;;;15.50;99.90;;;;;;5051598;28;20438;-74
2023/07/24 07:25:39;;;;;;;6.28;3.03;;;15.60;99.90;;;;;;5051965;28;20469;-73
2023/07/24 07:28:05;;;;;;;4.63;3.08;;;15.80;99.90;;;;;;5051212;28;20056;-73
2023/07/24 07:30:31;;;;;;;9.43;3.45;;;15.90;99.90;;;;;;5051614;28;20029;-73
2023/07/24 07:32:57;;;;;;;6.45;2.40;;;16.00;99.90;;;;;;5050363;28;20102;-73
2023/07/24 07:35:22;;;;;;;6.38;2.58;;;16.10;99.90;;;;;;5051216;28;20036;-74
2023/07/24 07:37:48;;;;;;;6.70;2.50;;;16.00;99.90;;;;;;5051416;28;20047;-74
2023/07/24 07:40:14;;;;;;;3.15;1.80;;;16.10;99.90;;;;;;5050706;28;20169;-74
2023/07/24 07:42:39;;;;;;;7.20;2.20;;;16.00;99.90;;;;;;5051543;28;20039;-74
2023/07/24 07:45:05;;;;;;;5.63;2.30;;;16.10;99.90;;;;;;5050707;28;20025;-74
2023/07/24 07:47:31;;;;;;;5.32;2.33;;;16.20;99.90;;;;;;5050979;28;20492;-74
2023/07/24 07:49:57;;;;;;;6.20;2.58;;;16.20;99.90;;;;;;5050560;28;20057;-74
2023/07/24 07:52:22;;;;;;;5.55;2.33;;;16.20;99.90;;;;;;5050604;28;20025;-74
2023/07/24 07:54:49;;;;;;;7.03;1.90;;;16.30;99.90;;;;;;5050790;28;20032;-74
2023/07/24 07:57:15;;;;;;;6.20;2.15;;;16.30;99.90;;;;;;5048864;28;20544;-74
2023/07/24 07:59:41;;;;;;;4.05;2.17;;;16.40;99.90;;;;;;5051089;28;20017;-74
2023/07/24 08:02:07;;;;;;;3.70;2.33;;;16.50;99.90;;;;;;5050639;28;20102;-74
2023/07/24 08:04:33;;;;;;;3.92;2.47;;;16.60;99.90;;;;;;5051064;28;20035;-74
2023/07/24 08:06:59;;;;;;;4.93;2.17;;;16.60;99.90;;;;;;5051060;28;20025;-74
2023/07/24 08:09:25;;;;;;;5.38;2.10;;;16.60;99.90;;;;;;5050086;28;20025;-74
2023/07/24 08:11:51;;;;;;;2.75;1.95;;;16.70;99.90;;;;;;5050708;28;20438;-74
2023/07/24 08:14:17;;;;;;;5.60;2.30;;;16.90;99.90;;;;;;5050038;28;20025;-74
2023/07/24 08:16:43;;;;;;;4.57;1.80;;;17.00;99.90;;;;;;5050526;28;20028;-74
2023/07/24 08:19:09;;;;;;;5.05;1.88;;;16.80;99.90;;;;;;5049769;28;20033;-75
2023/07/24 08:21:34;;;;;;;4.20;2.00;;;16.80;99.90;;;;;;5050938;28;20079;-73
2023/07/24 08:24:01;;;;;;;9.73;2.15;;;16.80;99.90;;;;;;5050103;28;20035;-77
2023/07/24 08:26:28;;;;;;;3.40;1.90;;;16.70;99.90;;;;;;5051072;28;20032;-74
2023/07/24 08:28:54;;;;;;;11.52;2.22;;;16.80;99.90;;;;;;5050006;28;20037;-74
2023/07/24 08:31:20;;;;;;;3.78;1.40;;;16.80;99.90;;;;;;5045280;28;20126;-76
2023/07/24 08:33:45;;;;;;;4.53;2.00;;;16.80;99.90;;;;;;5048146;28;20025;-74
2023/07/24 08:36:14;;;;;;;4.40;1.73;;;16.90;99.90;;;;;;5050290;28;20057;-75
2023/07/24 08:38:40;;;;;;;6.20;1.60;;;16.90;99.90;;;;;;5049479;28;20045;-75
2023/07/24 08:41:08;;;;;;;2.88;1.58;;;16.90;99.90;;;;;;5047894;28;20033;-74
2023/07/24 08:43:36;;;;;;;3.60;1.75;;;16.90;99.90;;;;;;5050301;28;20035;-74
2023/07/24 08:46:03;;;;;;;5.18;1.90;;;16.90;99.90;;;;;;5049845;28;20075;-77
2023/07/24 08:48:35;;;;;;;4.50;1.80;;;17.00;99.90;;;;;;5050234;28;20156;-74
2023/07/24 08:51:05;;;;;;;5.50;1.65;;;17.10;99.90;;;;;;5048940;28;20175;-75
2023/07/24 08:53:35;;;;;;;5.03;2.03;;;17.00;99.90;;;;;;5050497;28;20047;-75
2023/07/24 08:56:06;;;;;;;3.67;1.55;;;17.00;99.90;;;;;;5048840;28;20025;-75
2023/07/24 08:58:32;;;;;;;4.25;2.00;;;17.00;99.90;;;;;;5050032;28;20536;-75
2023/07/24 09:00:59;;;;;;;3.67;1.70;;;17.00;99.90;;;;;;5050019;28;20091;-75
2023/07/24 09:03:26;;;;;;;2.05;1.45;;;16.80;99.90;;;;;;5049390;28;20486;-75
2023/07/24 09:05:52;;;;;;;3.75;1.50;;;16.80;99.90;;;;;;5049944;28;20136;-75
2023/07/24 09:08:35;;;;;;;6.45;1.90;;;16.70;99.90;;;;;;5049499;28;20107;-75
2023/07/24 09:11:03;;;;;;;2.58;1.30;;;16.80;99.90;;;;;;5048380;28;20060;-75
2023/07/24 09:13:30;;;;;;;3.08;1.38;;;16.80;99.90;;;;;;5049977;28;20045;-75
2023/07/24 09:15:56;;;;;;;3.53;1.20;;;16.80;99.90;;;;;;5049890;28;20066;-75
2023/07/24 09:18:21;;;;;;;3.20;1.50;;;17.00;99.90;;;;;;5049377;28;20120;-75
2023/07/24 09:20:47;;;;;;;2.45;1.33;;;17.20;99.90;;;;;;5050146;28;20094;-75
2023/07/24 09:23:14;;;;;;;2.60;0.90;;;17.30;99.90;;;;;;5049355;28;20073;-75
2023/07/24 09:25:42;;;;;;;2.30;1.17;;;17.30;99.90;;;;;;5049891;28;20031;-75
2023/07/24 09:28:15;;;;;;;4.13;1.30;;;17.10;99.90;;;;;;5048942;28;20511;-75
2023/07/24 09:30:51;;;;;;;2.58;1.30;;;17.10;99.90;;;;;;5031937;28;20033;-75
2023/07/24 09:33:17;;;;;;;2.72;1.30;;;17.10;99.90;;;;;;5048260;28;20033;-74
2023/07/24 09:35:42;;;;;;;5.95;1.30;;;17.20;99.90;;;;;;5049930;28;20107;-75
2023/07/24 09:38:10;;;;;;;4.22;1.10;;;17.30;99.90;;;;;;5046913;28;20037;-75
2023/07/24 09:40:46;;;;;;;4.72;1.10;;;17.30;99.90;;;;;;5049711;28;20116;-74
2023/07/24 09:43:20;;;;;;;5.18;1.80;;;17.10;99.90;;;;;;5049082;28;20029;-76
2023/07/24 09:45:47;;;;;;;3.80;1.48;;;17.10;99.90;;;;;;5050179;28;20025;-75
2023/07/24 09:48:14;;;;;;;6.72;1.30;;;17.10;99.90;;;;;;5049158;28;20032;-76
2023/07/24 09:50:42;;;;;;;2.53;1.10;;;17.00;99.90;;;;;;5049548;28;20017;-74
2023/07/24 09:53:17;;;;;;;1.50;1.40;;;17.10;99.90;;;;;;5048998;28;20033;-77
2023/07/24 09:56:08;;;;;;;4.70;1.40;;;17.30;99.90;;;;;;5049770;28;20017;-76
2023/07/24 09:58:38;;;;;;;2.42;1.30;;;17.20;99.90;;;;;;5053238;28;20040;-75
2023/07/24 10:01:05;;;;;;;4.05;1.60;;;17.30;99.90;;;;;;5054060;28;20029;-76
2023/07/24 10:03:54;;;;;;;3.17;1.50;;;17.30;99.90;;;;;;5053148;28;20024;-76
2023/07/24 10:06:20;;;;;;;5.47;1.50;;;17.40;99.90;;;;;;5052264;28;20033;-75
2023/07/24 10:08:46;;;;;;;2.35;1.50;;;17.40;99.90;;;;;;5053184;28;20036;-76
2023/07/24 10:11:13;;;;;;;2.75;1.50;;;17.60;99.90;;;;;;5052992;28;20025;-77
2023/07/24 10:13:40;;;;;;;3.00;1.30;;;17.80;99.90;;;;;;5052900;28;20446;-76
2023/07/24 10:16:07;;;;;;;4.07;1.75;;;18.20;99.90;;;;;;5053239;28;20024;-76
2023/07/24 10:18:35;;;;;;;2.10;1.30;;;18.30;99.90;;;;;;5052647;28;20037;-76
2023/07/24 10:21:02;;;;;;;5.63;1.90;;;18.40;99.90;;;;;;5052768;28;20040;-75
2023/07/24 10:23:28;;;;;;;1.90;1.08;;;18.60;99.90;;;;;;5052454;28;20381;-76
2023/07/24 10:25:54;;;;;;;4.22;1.38;;;18.80;99.90;;;;;;5053221;28;20029;-76
2023/07/24 10:28:29;;;;;;;3.08;1.20;;;18.70;99.90;;;;;;5050877;28;20509;-76
2023/07/24 10:30:56;;;;;;;3.08;1.08;;;18.50;99.90;;;;;;5053280;28;20029;-76
2023/07/24 10:33:22;;;;;;;4.85;1.50;;;18.60;99.90;;;;;;5052516;28;20032;-76
2023/07/24 10:35:54;;;;;;;2.47;1.17;;;18.40;99.90;;;;;;5052866;28;20354;-76
2023/07/24 10:38:38;;;;;;;1.48;0.93;;;18.50;99.90;;;;;;5051799;28;20073;-76
2023/07/24 10:41:05;;;;;;;1.40;1.15;;;18.40;99.90;;;;;;5052733;28;20087;-75
2023/07/24 10:44:00;;;;;;;2.92;1.13;;;18.20;99.90;;;;;;5052440;28;20056;-76
2023/07/24 10:46:39;;;;;;;3.42;1.33;;;18.30;99.90;;;;;;5046157;28;20041;-76
2023/07/24 10:49:06;;;;;;;5.55;1.65;;;18.40;99.90;;;;;;5052754;28;20481;-76
2023/07/24 10:51:33;;;;;;;3.58;1.33;;;18.40;99.90;;;;;;5052844;28;20995;-76
2023/07/24 10:53:59;;;;;;;2.28;1.02;;;18.40;99.90;;;;;;5053135;28;20052;-75
2023/07/24 10:56:25;;;;;;;1.45;1.13;;;18.40;99.90;;;;;;5052650;28;20419;-76
2023/07/24 10:58:51;;;;;;;4.18;1.17;;;18.60;99.90;;;;;;5052922;28;20041;-76
2023/07/24 11:01:18;;;;;;;2.78;0.82;;;18.50;99.90;;;;;;5052330;28;20033;-76
2023/07/24 11:03:44;;;;;;;4.93;1.52;;;18.60;99.90;;;;;;5052567;28;20024;-75
2023/07/24 11:06:18;;;;;;;3.25;1.00;;;18.60;99.90;;;;;;5052504;28;20029;-76
2023/07/24 11:08:58;;;;;;;1.30;1.08;;;18.60;99.90;;;;;;5052295;28;20104;-76
2023/07/24 11:11:36;;;;;;;3.10;1.20;;;18.50;99.90;;;;;;5051960;28;20048;-76
2023/07/24 11:14:02;;;;;;;1.42;0.93;;;18.60;99.90;;;;;;5050950;28;20076;-76
2023/07/24 11:16:31;;;;;;;2.00;0.98;;;18.50;99.90;;;;;;5052328;28;20029;-76
2023/07/24 11:18:56;;;;;;;1.60;0.88;;;18.40;99.90;;;;;;5052359;28;20087;-76
2023/07/24 11:21:23;;;;;;;1.83;1.15;;;18.50;99.90;;;;;;5050533;28;20021;-76
2023/07/24 11:23:51;;;;;;;2.40;1.00;;;18.50;99.90;;;;;;5052467;28;20037;-75
2023/07/24 11:26:21;;;;;;;3.53;1.10;;;18.40;99.90;;;;;;5051889;28;20036;-76
2023/07/24 11:28:47;;;;;;;1.60;1.17;;;18.50;99.90;;;;;;5052275;28;20131;-76
2023/07/24 11:31:14;;;;;;;3.42;1.23;;;18.60;99.90;;;;;;5051972;28;20162;-77
2023/07/24 11:33:41;;;;;;;1.52;1.00;;;18.50;99.90;;;;;;5051921;28;20108;-76
2023/07/24 11:36:07;;;;;;;3.85;1.35;;;18.40;99.90;;;;;;5052338;28;20037;-76
2023/07/24 11:38:33;;;;;;;3.38;1.30;;;18.30;99.90;;;;;;5051511;28;20091;-76
2023/07/24 11:40:59;;;;;;;1.55;1.10;;;18.20;99.90;;;;;;5051969;28;20036;-76
2023/07/24 11:43:26;;;;;;;2.65;1.40;;;18.30;99.90;;;;;;5049827;28;20178;-76
2023/07/24 11:45:53;;;;;;;3.92;1.20;;;18.40;99.90;;;;;;5051487;28;20471;-76
2023/07/24 11:48:20;;;;;;;2.42;1.10;;;18.40;99.90;;;;;;5051158;28;20035;-77
2023/07/24 11:50:50;;;;;;;1.58;1.02;;;18.40;99.90;;;;;;5051720;28;20029;-75
2023/07/24 11:53:29;;;;;;;2.03;1.27;;;18.50;99.90;;;;;;5051004;28;20021;-77
2023/07/24 11:55:57;;;;;;;3.20;1.50;;;18.60;99.90;;;;;;5051809;28;20107;-76
2023/07/24 11:58:26;;;;;;;2.28;1.10;;;18.60;99.90;;;;;;5050728;28;20033;-76
2023/07/24 12:00:53;;;;;;;2.72;1.10;;;18.70;99.90;;;;;;5051845;28;20037;-76
2023/07/24 12:03:26;;;;;;;2.33;1.25;;;18.70;99.90;;;;;;5051044;28;20036;-77
2023/07/24 12:05:52;;;;;;;2.85;1.20;;;18.70;99.90;;;;;;5051650;28;20052;-76
2023/07/24 12:08:23;;;;;;;2.80;1.30;;;18.70;99.90;;;;;;5051355;28;20458;-75
2023/07/24 12:10:49;;;;;;;2.45;1.30;;;18.80;99.90;;;;;;5051478;28;20636;-76
2023/07/24 12:13:15;;;;;;;2.55;1.25;;;18.90;99.90;;;;;;5051012;28;20100;-76
2023/07/24 12:15:41;;;;;;;2.55;1.20;;;19.00;99.90;;;;;;5051260;28;20040;-76
2023/07/24 12:18:07;;;;;;;1.30;1.20;;;19.00;99.90;;;;;;5052031;28;20135;-75
2023/07/24 12:20:33;;;;;;;2.90;1.30;;;19.30;99.90;;;;;;5050785;28;20403;-75
2023/07/24 12:22:59;;;;;;;2.15;1.25;;;19.30;99.90;;;;;;5052149;28;20107;-75
2023/07/24 12:25:25;;;;;;;4.55;1.38;;;19.30;99.90;;;;;;5051549;28;20115;-76
2023/07/24 12:27:51;;;;;;;8.57;2.30;;;19.50;99.90;;;;;;5051597;28;20443;-76
2023/07/24 12:30:17;;;;;;;2.50;1.08;;;19.50;99.90;;;;;;5051582;28;20108;-77
2023/07/24 12:32:42;;;;;;;39.80;8.75;;;19.60;99.90;;;;;;5049982;28;20029;-75
2023/07/24 12:35:10;;;;;;;5.53;2.08;;;19.70;99.90;;;;;;5052066;28;20419;-76
2023/07/24 12:37:36;;;;;;;4.65;1.92;;;19.70;99.90;;;;;;5051066;28;20467;-75
2023/07/24 12:40:03;;;;;;;3.90;1.40;;;19.60;99.90;;;;;;5051833;28;20037;-76
2023/07/24 12:42:28;;;;;;;4.50;1.60;;;19.30;99.90;;;;;;5051127;28;20025;-76